sensor_id;sensor_type;location;lat;lon;timestamp;temperature;humidity
57833;DHT22;43667;53.036;6.740;2022-08-21T00:00:41;15.50;99.90
57833;DHT22;43667;53.036;6.740;2022-08-21T00:03:09;15.50;99.90
57833;DHT22;43667;53.036;6.740;2022-08-21T00:05:38;15.40;99.90
57833;DHT22;43667;53.036;6.740;2022-08-21T00:08:04;15.40;99.90
57833;DHT22;43667;53.036;6.740;2022-08-21T00:10:30;15.30;99.90
57833;DHT22;43667;53.036;6.740;2022-08-21T00:12:56;15.30;99.90
57833;DHT22;43667;53.036;6.740;2022-08-21T00:15:25;15.30;99.90
57833;DHT22;43667;53.036;6.740;2022-08-21T00:17:52;15.20;99.90
57833;DHT22;43667;53.036;6.740;2022-08-21T00:20:19;15.20;99.90
57833;DHT22;43667;53.036;6.740;2022-08-21T00:22:45;15.20;99.90
57833;DHT22;43667;53.036;6.740;2022-08-21T00:25:13;15.10;99.90
57833;DHT22;43667;53.036;6.740;2022-08-21T00:27:39;15.00;99.90
57833;DHT22;43667;53.036;6.740;2022-08-21T00:30:09;15.00;99.90
57833;DHT22;43667;53.036;6.740;2022-08-21T00:32:37;15.00;99.90
57833;DHT22;43667;53.036;6.740;2022-08-21T00:35:09;14.90;99.90
57833;DHT22;43667;53.036;6.740;2022-08-21T00:37:38;14.80;99.90
57833;DHT22;43667;53.036;6.740;2022-08-21T00:40:05;14.80;99.90
57833;DHT22;43667;53.036;6.740;2022-08-21T00:42:31;14.80;99.90
57833;DHT22;43667;53.036;6.740;2022-08-21T00:44:57;14.80;99.90
57833;DHT22;43667;53.036;6.740;2022-08-21T00:47:23;14.70;99.90
57833;DHT22;43667;53.036;6.740;2022-08-21T00:49:49;14.70;99.90
57833;DHT22;43667;53.036;6.740;2022-08-21T00:52:19;14.70;99.90
57833;DHT22;43667;53.036;6.740;2022-08-21T00:54:47;14.60;99.90
57833;DHT22;43667;53.036;6.740;2022-08-21T00:57:17;14.60;99.90
57833;DHT22;43667;53.036;6.740;2022-08-21T00:59:47;14.60;99.90
57833;DHT22;43667;53.036;6.740;2022-08-21T01:02:14;14.60;99.90
57833;DHT22;43667;53.036;6.740;2022-08-21T01:04:40;14.50;99.90
57833;DHT22;43667;53.036;6.740;2022-08-21T01:07:06;14.50;99.90
57833;DHT22;43667;53.036;6.740;2022-08-21T01:09:32;14.50;99.90
57833;DHT22;43667;53.036;6.740;2022-08-21T01:11:58;14.40;99.90
57833;DHT22;43667;53.036;6.740;2022-08-21T01:14:24;14.40;99.90
57833;DHT22;43667;53.036;6.740;2022-08-21T01:16:51;14.40;99.90
57833;DHT22;43667;53.036;6.740;2022-08-21T01:19:20;14.40;99.90
57833;DHT22;43667;53.036;6.740;2022-08-21T01:21:46;14.30;99.90
57833;DHT22;43667;53.036;6.740;2022-08-21T01:24:12;14.30;99.90
57833;DHT22;43667;53.036;6.740;2022-08-21T01:26:39;14.30;99.90
57833;DHT22;43667;53.036;6.740;2022-08-21T01:29:20;14.30;99.90
57833;DHT22;43667;53.036;6.740;2022-08-21T01:31:48;14.30;99.90
57833;DHT22;43667;53.036;6.740;2022-08-21T01:34:14;14.20;99.90
57833;DHT22;43667;53.036;6.740;2022-08-21T01:36:42;14.20;99.90
57833;DHT22;43667;53.036;6.740;2022-08-21T01:39:08;14.20;99.90
57833;DHT22;43667;53.036;6.740;2022-08-21T01:41:34;14.20;99.90
57833;DHT22;43667;53.036;6.740;2022-08-21T01:44:00;14.20;99.90
57833;DHT22;43667;53.036;6.740;2022-08-21T01:46:26;14.10;99.90
57833;DHT22;43667;53.036;6.740;2022-08-21T01:48:51;14.10;99.90
57833;DHT22;43667;53.036;6.740;2022-08-21T01:51:17;14.10;99.90
57833;DHT22;43667;53.036;6.740;2022-08-21T01:53:43;14.00;99.90
57833;DHT22;43667;53.036;6.740;2022-08-21T01:56:11;14.00;99.90
57833;DHT22;43667;53.036;6.740;2022-08-21T01:58:38;14.00;99.90
57833;DHT22;43667;53.036;6.740;2022-08-21T02:01:04;14.00;99.90
57833;DHT22;43667;53.036;6.740;2022-08-21T02:03:30;14.00;99.90
57833;DHT22;43667;53.036;6.740;2022-08-21T02:05:56;14.00;99.90
57833;DHT22;43667;53.036;6.740;2022-08-21T02:08:22;13.90;99.90
57833;DHT22;43667;53.036;6.740;2022-08-21T02:10:51;13.90;99.90
57833;DHT22;43667;53.036;6.740;2022-08-21T02:13:18;13.90;99.90
57833;DHT22;43667;53.036;6.740;2022-08-21T02:15:43;13.90;99.90
57833;DHT22;43667;53.036;6.740;2022-08-21T02:18:10;13.90;99.90
57833;DHT22;43667;53.036;6.740;2022-08-21T02:20:40;13.80;99.90
57833;DHT22;43667;53.036;6.740;2022-08-21T02:23:07;13.80;99.90
57833;DHT22;43667;53.036;6.740;2022-08-21T02:25:33;13.80;99.90
57833;DHT22;43667;53.036;6.740;2022-08-21T02:28:03;13.80;99.90
57833;DHT22;43667;53.036;6.740;2022-08-21T02:30:32;13.70;99.90
57833;DHT22;43667;53.036;6.740;2022-08-21T02:32:58;13.70;99.90
57833;DHT22;43667;53.036;6.740;2022-08-21T02:35:25;13.70;99.90
57833;DHT22;43667;53.036;6.740;2022-08-21T02:38:00;13.70;99.90
57833;DHT22;43667;53.036;6.740;2022-08-21T02:40:29;13.70;99.90
57833;DHT22;43667;53.036;6.740;2022-08-21T02:42:56;13.70;99.90
57833;DHT22;43667;53.036;6.740;2022-08-21T02:45:22;13.70;99.90
57833;DHT22;43667;53.036;6.740;2022-08-21T02:48:01;13.70;99.90
57833;DHT22;43667;53.036;6.740;2022-08-21T02:50:30;13.70;99.90
57833;DHT22;43667;53.036;6.740;2022-08-21T02:52:57;13.60;99.90
57833;DHT22;43667;53.036;6.740;2022-08-21T02:55:24;13.60;99.90
57833;DHT22;43667;53.036;6.740;2022-08-21T02:57:52;13.60;99.90
57833;DHT22;43667;53.036;6.740;2022-08-21T03:00:19;13.60;99.90
57833;DHT22;43667;53.036;6.740;2022-08-21T03:02:46;13.60;99.90
57833;DHT22;43667;53.036;6.740;2022-08-21T03:05:12;13.60;99.90
57833;DHT22;43667;53.036;6.740;2022-08-21T03:07:39;13.60;99.90
57833;DHT22;43667;53.036;6.740;2022-08-21T03:10:05;13.60;99.90
57833;DHT22;43667;53.036;6.740;2022-08-21T03:12:31;13.60;99.90
57833;DHT22;43667;53.036;6.740;2022-08-21T03:14:57;13.60;99.90
57833;DHT22;43667;53.036;6.740;2022-08-21T03:17:24;13.60;99.90
57833;DHT22;43667;53.036;6.740;2022-08-21T03:19:50;13.50;99.90
57833;DHT22;43667;53.036;6.740;2022-08-21T03:22:15;13.50;99.90
57833;DHT22;43667;53.036;6.740;2022-08-21T03:24:41;13.50;99.90
57833;DHT22;43667;53.036;6.740;2022-08-21T03:27:06;13.50;99.90
57833;DHT22;43667;53.036;6.740;2022-08-21T03:29:32;13.50;99.90
57833;DHT22;43667;53.036;6.740;2022-08-21T03:31:58;13.40;99.90
57833;DHT22;43667;53.036;6.740;2022-08-21T03:34:23;13.40;99.90
57833;DHT22;43667;53.036;6.740;2022-08-21T03:36:49;13.40;99.90
57833;DHT22;43667;53.036;6.740;2022-08-21T03:39:16;13.40;99.90
57833;DHT22;43667;53.036;6.740;2022-08-21T03:41:42;13.40;99.90
57833;DHT22;43667;53.036;6.740;2022-08-21T03:44:08;13.40;99.90
57833;DHT22;43667;53.036;6.740;2022-08-21T03:46:33;13.40;99.90
57833;DHT22;43667;53.036;6.740;2022-08-21T03:49:00;13.40;99.90
57833;DHT22;43667;53.036;6.740;2022-08-21T03:51:26;13.40;99.90
57833;DHT22;43667;53.036;6.740;2022-08-21T03:53:52;13.40;99.90
57833;DHT22;43667;53.036;6.740;2022-08-21T03:56:17;13.40;99.90
57833;DHT22;43667;53.036;6.740;2022-08-21T03:58:43;13.30;99.90
57833;DHT22;43667;53.036;6.740;2022-08-21T04:01:10;13.30;99.90
57833;DHT22;43667;53.036;6.740;2022-08-21T04:03:36;13.30;99.90
57833;DHT22;43667;53.036;6.740;2022-08-21T04:06:03;13.30;99.90
57833;DHT22;43667;53.036;6.740;2022-08-21T04:08:28;13.30;99.90
57833;DHT22;43667;53.036;6.740;2022-08-21T04:10:57;13.30;99.90
57833;DHT22;43667;53.036;6.740;2022-08-21T04:13:23;13.30;99.90
57833;DHT22;43667;53.036;6.740;2022-08-21T04:15:49;13.30;99.90
57833;DHT22;43667;53.036;6.740;2022-08-21T04:18:15;13.30;99.90
57833;DHT22;43667;53.036;6.740;2022-08-21T04:20:42;13.30;99.90
57833;DHT22;43667;53.036;6.740;2022-08-21T04:23:09;13.30;99.90
57833;DHT22;43667;53.036;6.740;2022-08-21T04:25:34;13.30;99.90
57833;DHT22;43667;53.036;6.740;2022-08-21T04:28:01;13.30;99.90
57833;DHT22;43667;53.036;6.740;2022-08-21T04:30:27;13.30;99.90
57833;DHT22;43667;53.036;6.740;2022-08-21T04:32:53;13.20;99.90
57833;DHT22;43667;53.036;6.740;2022-08-21T04:35:21;13.30;99.90
57833;DHT22;43667;53.036;6.740;2022-08-21T04:37:49;13.30;99.90
57833;DHT22;43667;53.036;6.740;2022-08-21T04:40:16;13.30;99.90
57833;DHT22;43667;53.036;6.740;2022-08-21T04:42:47;13.30;99.90
57833;DHT22;43667;53.036;6.740;2022-08-21T04:45:24;13.30;99.90
57833;DHT22;43667;53.036;6.740;2022-08-21T04:47:56;13.30;99.90
57833;DHT22;43667;53.036;6.740;2022-08-21T04:50:29;13.30;99.90
57833;DHT22;43667;53.036;6.740;2022-08-21T04:52:56;13.30;99.90
57833;DHT22;43667;53.036;6.740;2022-08-21T04:55:23;13.30;99.90
57833;DHT22;43667;53.036;6.740;2022-08-21T04:57:50;13.40;99.90
57833;DHT22;43667;53.036;6.740;2022-08-21T05:00:19;13.40;99.90
57833;DHT22;43667;53.036;6.740;2022-08-21T05:02:46;13.40;99.90
57833;DHT22;43667;53.036;6.740;2022-08-21T05:05:15;13.50;99.90
57833;DHT22;43667;53.036;6.740;2022-08-21T05:07:42;13.50;99.90
57833;DHT22;43667;53.036;6.740;2022-08-21T05:10:09;13.50;99.90
57833;DHT22;43667;53.036;6.740;2022-08-21T05:12:35;13.50;99.90
57833;DHT22;43667;53.036;6.740;2022-08-21T05:15:01;13.60;99.90
57833;DHT22;43667;53.036;6.740;2022-08-21T05:17:27;13.60;99.90
57833;DHT22;43667;53.036;6.740;2022-08-21T05:19:52;13.70;99.90
57833;DHT22;43667;53.036;6.740;2022-08-21T05:22:22;13.70;99.90
57833;DHT22;43667;53.036;6.740;2022-08-21T05:24:50;13.80;99.90
57833;DHT22;43667;53.036;6.740;2022-08-21T05:27:16;13.80;99.90
57833;DHT22;43667;53.036;6.740;2022-08-21T05:29:42;13.90;99.90
57833;DHT22;43667;53.036;6.740;2022-08-21T05:32:09;14.00;99.90
57833;DHT22;43667;53.036;6.740;2022-08-21T05:34:35;14.00;99.90
57833;DHT22;43667;53.036;6.740;2022-08-21T05:37:01;14.10;99.90
57833;DHT22;43667;53.036;6.740;2022-08-21T05:39:26;14.20;99.90
57833;DHT22;43667;53.036;6.740;2022-08-21T05:41:52;14.30;99.90
57833;DHT22;43667;53.036;6.740;2022-08-21T05:44:18;14.40;99.90
57833;DHT22;43667;53.036;6.740;2022-08-21T05:46:43;14.40;99.90
57833;DHT22;43667;53.036;6.740;2022-08-21T05:49:09;14.50;99.90
57833;DHT22;43667;53.036;6.740;2022-08-21T05:51:35;14.60;99.90
57833;DHT22;43667;53.036;6.740;2022-08-21T05:54:01;14.70;99.90
57833;DHT22;43667;53.036;6.740;2022-08-21T05:56:26;14.80;99.90
57833;DHT22;43667;53.036;6.740;2022-08-21T05:58:52;14.90;99.90
57833;DHT22;43667;53.036;6.740;2022-08-21T06:01:18;15.10;99.90
57833;DHT22;43667;53.036;6.740;2022-08-21T06:03:43;15.20;99.90
57833;DHT22;43667;53.036;6.740;2022-08-21T06:06:09;15.30;99.90
57833;DHT22;43667;53.036;6.740;2022-08-21T06:08:35;15.40;99.90
57833;DHT22;43667;53.036;6.740;2022-08-21T06:11:03;15.60;99.90
57833;DHT22;43667;53.036;6.740;2022-08-21T06:13:29;15.70;99.90
57833;DHT22;43667;53.036;6.740;2022-08-21T06:16:13;15.80;99.90
57833;DHT22;43667;53.036;6.740;2022-08-21T06:18:39;15.90;99.90
57833;DHT22;43667;53.036;6.740;2022-08-21T06:21:06;16.00;99.90
57833;DHT22;43667;53.036;6.740;2022-08-21T06:23:32;16.20;99.90
57833;DHT22;43667;53.036;6.740;2022-08-21T06:25:58;16.30;99.90
57833;DHT22;43667;53.036;6.740;2022-08-21T06:28:24;16.40;99.90
57833;DHT22;43667;53.036;6.740;2022-08-21T06:30:50;16.60;99.90
57833;DHT22;43667;53.036;6.740;2022-08-21T06:33:15;16.70;99.90
57833;DHT22;43667;53.036;6.740;2022-08-21T06:35:41;16.80;99.90
57833;DHT22;43667;53.036;6.740;2022-08-21T06:38:07;16.90;99.90
57833;DHT22;43667;53.036;6.740;2022-08-21T06:40:33;17.10;99.90
57833;DHT22;43667;53.036;6.740;2022-08-21T06:43:05;17.20;99.90
57833;DHT22;43667;53.036;6.740;2022-08-21T06:45:31;17.30;99.90
57833;DHT22;43667;53.036;6.740;2022-08-21T06:47:57;17.50;99.90
57833;DHT22;43667;53.036;6.740;2022-08-21T06:50:23;17.60;99.90
57833;DHT22;43667;53.036;6.740;2022-08-21T06:52:48;17.70;99.90
57833;DHT22;43667;53.036;6.740;2022-08-21T06:55:14;17.90;99.90
57833;DHT22;43667;53.036;6.740;2022-08-21T06:57:39;18.00;99.90
57833;DHT22;43667;53.036;6.740;2022-08-21T07:00:06;18.10;99.90
57833;DHT22;43667;53.036;6.740;2022-08-21T07:02:32;18.30;99.90
57833;DHT22;43667;53.036;6.740;2022-08-21T07:04:59;18.40;99.90
57833;DHT22;43667;53.036;6.740;2022-08-21T07:07:24;18.50;99.90
57833;DHT22;43667;53.036;6.740;2022-08-21T07:09:50;18.60;99.90
57833;DHT22;43667;53.036;6.740;2022-08-21T07:12:16;18.80;99.90
57833;DHT22;43667;53.036;6.740;2022-08-21T07:14:41;19.00;99.90
57833;DHT22;43667;53.036;6.740;2022-08-21T07:17:08;19.10;99.90
57833;DHT22;43667;53.036;6.740;2022-08-21T07:19:33;19.30;99.90
57833;DHT22;43667;53.036;6.740;2022-08-21T07:22:00;19.30;99.90
57833;DHT22;43667;53.036;6.740;2022-08-21T07:24:27;19.50;99.90
57833;DHT22;43667;53.036;6.740;2022-08-21T07:26:53;19.60;99.90
57833;DHT22;43667;53.036;6.740;2022-08-21T07:29:19;19.80;99.90
57833;DHT22;43667;53.036;6.740;2022-08-21T07:31:44;20.00;99.90
57833;DHT22;43667;53.036;6.740;2022-08-21T07:34:10;20.10;99.90
57833;DHT22;43667;53.036;6.740;2022-08-21T07:36:36;20.20;99.90
57833;DHT22;43667;53.036;6.740;2022-08-21T07:39:02;20.30;99.90
57833;DHT22;43667;53.036;6.740;2022-08-21T07:41:29;20.50;99.90
57833;DHT22;43667;53.036;6.740;2022-08-21T07:43:56;20.60;99.90
57833;DHT22;43667;53.036;6.740;2022-08-21T07:46:23;20.70;99.90
57833;DHT22;43667;53.036;6.740;2022-08-21T07:48:49;20.90;99.90
57833;DHT22;43667;53.036;6.740;2022-08-21T07:51:16;21.00;99.90
57833;DHT22;43667;53.036;6.740;2022-08-21T07:53:47;21.00;99.90
57833;DHT22;43667;53.036;6.740;2022-08-21T07:56:12;21.10;99.90
57833;DHT22;43667;53.036;6.740;2022-08-21T07:58:38;21.20;99.90
57833;DHT22;43667;53.036;6.740;2022-08-21T08:01:05;21.20;99.90
57833;DHT22;43667;53.036;6.740;2022-08-21T08:03:31;21.30;99.90
57833;DHT22;43667;53.036;6.740;2022-08-21T08:05:57;21.40;99.90
57833;DHT22;43667;53.036;6.740;2022-08-21T08:08:24;21.60;99.90
57833;DHT22;43667;53.036;6.740;2022-08-21T08:10:50;21.70;99.90
57833;DHT22;43667;53.036;6.740;2022-08-21T08:13:16;21.70;99.90
57833;DHT22;43667;53.036;6.740;2022-08-21T08:15:42;21.80;99.90
57833;DHT22;43667;53.036;6.740;2022-08-21T08:18:07;21.80;99.90
57833;DHT22;43667;53.036;6.740;2022-08-21T08:20:33;21.90;99.90
57833;DHT22;43667;53.036;6.740;2022-08-21T08:22:59;21.90;99.20
57833;DHT22;43667;53.036;6.740;2022-08-21T08:25:25;22.00;98.80
57833;DHT22;43667;53.036;6.740;2022-08-21T08:27:51;22.10;98.00
57833;DHT22;43667;53.036;6.740;2022-08-21T08:30:18;22.20;97.80
57833;DHT22;43667;53.036;6.740;2022-08-21T08:32:45;22.30;97.20
57833;DHT22;43667;53.036;6.740;2022-08-21T08:35:11;22.40;96.50
57833;DHT22;43667;53.036;6.740;2022-08-21T08:37:38;22.50;95.80
57833;DHT22;43667;53.036;6.740;2022-08-21T08:40:28;22.50;95.10
57833;DHT22;43667;53.036;6.740;2022-08-21T08:42:56;22.70;95.10
57833;DHT22;43667;53.036;6.740;2022-08-21T08:45:22;22.80;94.20
57833;DHT22;43667;53.036;6.740;2022-08-21T08:47:55;23.00;92.80
57833;DHT22;43667;53.036;6.740;2022-08-21T08:53:19;23.00;90.90
57833;DHT22;43667;53.036;6.740;2022-08-21T08:55:48;23.20;90.30
57833;DHT22;43667;53.036;6.740;2022-08-21T09:00:51;23.30;87.50
57833;DHT22;43667;53.036;6.740;2022-08-21T09:03:18;23.40;87.20
57833;DHT22;43667;53.036;6.740;2022-08-21T09:05:48;23.50;87.70
57833;DHT22;43667;53.036;6.740;2022-08-21T09:08:50;23.50;86.40
57833;DHT22;43667;53.036;6.740;2022-08-21T09:11:26;23.50;80.10
57833;DHT22;43667;53.036;6.740;2022-08-21T09:19:23;23.70;79.20
57833;DHT22;43667;53.036;6.740;2022-08-21T09:22:08;23.80;77.50
57833;DHT22;43667;53.036;6.740;2022-08-21T09:27:17;24.00;75.70
57833;DHT22;43667;53.036;6.740;2022-08-21T09:29:46;24.10;74.40
57833;DHT22;43667;53.036;6.740;2022-08-21T09:32:49;24.20;72.10
57833;DHT22;43667;53.036;6.740;2022-08-21T09:35:14;24.30;70.70
57833;DHT22;43667;53.036;6.740;2022-08-21T09:37:56;24.30;71.60
57833;DHT22;43667;53.036;6.740;2022-08-21T09:40:44;24.50;71.40
57833;DHT22;43667;53.036;6.740;2022-08-21T09:45:37;24.80;70.60
57833;DHT22;43667;53.036;6.740;2022-08-21T09:48:22;24.90;68.40
57833;DHT22;43667;53.036;6.740;2022-08-21T09:50:50;25.00;67.30
57833;DHT22;43667;53.036;6.740;2022-08-21T09:53:22;25.00;67.20
57833;DHT22;43667;53.036;6.740;2022-08-21T09:58:39;25.10;67.10
57833;DHT22;43667;53.036;6.740;2022-08-21T10:01:14;25.20;68.00
57833;DHT22;43667;53.036;6.740;2022-08-21T10:03:40;25.40;66.80
57833;DHT22;43667;53.036;6.740;2022-08-21T10:06:08;25.60;65.70
57833;DHT22;43667;53.036;6.740;2022-08-21T10:08:38;25.70;64.00
57833;DHT22;43667;53.036;6.740;2022-08-21T10:11:07;25.60;65.10
57833;DHT22;43667;53.036;6.740;2022-08-21T10:14:11;25.80;65.50
57833;DHT22;43667;53.036;6.740;2022-08-21T10:16:56;26.00;63.70
57833;DHT22;43667;53.036;6.740;2022-08-21T10:19:42;26.20;63.50
57833;DHT22;43667;53.036;6.740;2022-08-21T10:28:11;26.70;61.10
57833;DHT22;43667;53.036;6.740;2022-08-21T10:33:39;26.50;61.30
57833;DHT22;43667;53.036;6.740;2022-08-21T10:36:32;26.30;62.20
57833;DHT22;43667;53.036;6.740;2022-08-21T10:53:15;27.10;58.30
57833;DHT22;43667;53.036;6.740;2022-08-21T10:58:34;27.50;57.00
57833;DHT22;43667;53.036;6.740;2022-08-21T11:01:13;27.60;57.00
57833;DHT22;43667;53.036;6.740;2022-08-21T11:03:51;27.60;56.60
57833;DHT22;43667;53.036;6.740;2022-08-21T11:06:24;27.70;56.00
57833;DHT22;43667;53.036;6.740;2022-08-21T11:08:55;27.80;55.20
57833;DHT22;43667;53.036;6.740;2022-08-21T11:11:35;27.50;54.50
57833;DHT22;43667;53.036;6.740;2022-08-21T11:14:34;27.20;54.70
57833;DHT22;43667;53.036;6.740;2022-08-21T11:17:11;27.00;55.40
57833;DHT22;43667;53.036;6.740;2022-08-21T11:19:42;26.80;56.60
57833;DHT22;43667;53.036;6.740;2022-08-21T11:22:45;26.80;57.30
57833;DHT22;43667;53.036;6.740;2022-08-21T11:25:34;27.00;55.20
57833;DHT22;43667;53.036;6.740;2022-08-21T11:28:22;26.90;56.10
57833;DHT22;43667;53.036;6.740;2022-08-21T11:34:13;26.70;56.80
57833;DHT22;43667;53.036;6.740;2022-08-21T11:40:13;27.20;57.40
57833;DHT22;43667;53.036;6.740;2022-08-21T11:42:50;27.20;56.40
57833;DHT22;43667;53.036;6.740;2022-08-21T11:48:25;27.10;56.00
57833;DHT22;43667;53.036;6.740;2022-08-21T11:50:54;27.10;55.60
57833;DHT22;43667;53.036;6.740;2022-08-21T11:53:31;27.00;55.00
57833;DHT22;43667;53.036;6.740;2022-08-21T11:56:03;26.80;54.80
57833;DHT22;43667;53.036;6.740;2022-08-21T11:58:51;26.40;56.40
57833;DHT22;43667;53.036;6.740;2022-08-21T12:01:28;26.10;56.90
57833;DHT22;43667;53.036;6.740;2022-08-21T12:04:03;25.80;58.60
57833;DHT22;43667;53.036;6.740;2022-08-21T12:06:38;25.70;59.70
57833;DHT22;43667;53.036;6.740;2022-08-21T12:09:09;25.70;59.40
57833;DHT22;43667;53.036;6.740;2022-08-21T12:11:51;25.70;59.60
57833;DHT22;43667;53.036;6.740;2022-08-21T12:14:36;25.70;59.60
57833;DHT22;43667;53.036;6.740;2022-08-21T12:17:09;25.70;61.70
57833;DHT22;43667;53.036;6.740;2022-08-21T12:19:43;25.70;61.30
57833;DHT22;43667;53.036;6.740;2022-08-21T12:22:12;25.60;61.30
57833;DHT22;43667;53.036;6.740;2022-08-21T12:24:45;25.60;61.20
57833;DHT22;43667;53.036;6.740;2022-08-21T12:29:43;25.60;62.20
57833;DHT22;43667;53.036;6.740;2022-08-21T12:34:46;25.70;62.20
57833;DHT22;43667;53.036;6.740;2022-08-21T12:37:39;25.80;61.60
57833;DHT22;43667;53.036;6.740;2022-08-21T12:42:49;26.00;61.40
57833;DHT22;43667;53.036;6.740;2022-08-21T12:45:34;26.00;61.10
57833;DHT22;43667;53.036;6.740;2022-08-21T12:50:55;26.00;61.80
57833;DHT22;43667;53.036;6.740;2022-08-21T12:53:30;26.10;62.00
57833;DHT22;43667;53.036;6.740;2022-08-21T12:55:57;26.20;62.30
57833;DHT22;43667;53.036;6.740;2022-08-21T12:58:27;26.10;61.10
57833;DHT22;43667;53.036;6.740;2022-08-21T13:01:13;26.00;61.40
57833;DHT22;43667;53.036;6.740;2022-08-21T13:03:41;25.80;63.20
57833;DHT22;43667;53.036;6.740;2022-08-21T13:06:14;25.70;63.30
57833;DHT22;43667;53.036;6.740;2022-08-21T13:08:43;25.60;64.60
57833;DHT22;43667;53.036;6.740;2022-08-21T13:11:10;25.50;63.90
57833;DHT22;43667;53.036;6.740;2022-08-21T13:13:38;25.40;65.60
57833;DHT22;43667;53.036;6.740;2022-08-21T13:16:07;25.30;66.90
57833;DHT22;43667;53.036;6.740;2022-08-21T13:18:35;25.20;66.70
57833;DHT22;43667;53.036;6.740;2022-08-21T13:21:14;25.10;68.10
57833;DHT22;43667;53.036;6.740;2022-08-21T13:23:40;24.90;68.20
57833;DHT22;43667;53.036;6.740;2022-08-21T13:26:21;24.80;67.90
57833;DHT22;43667;53.036;6.740;2022-08-21T13:28:48;24.80;68.40
57833;DHT22;43667;53.036;6.740;2022-08-21T13:31:26;24.80;67.60
57833;DHT22;43667;53.036;6.740;2022-08-21T13:33:53;24.90;67.90
57833;DHT22;43667;53.036;6.740;2022-08-21T13:36:25;25.00;67.80
57833;DHT22;43667;53.036;6.740;2022-08-21T13:38:53;25.10;68.00
57833;DHT22;43667;53.036;6.740;2022-08-21T13:41:26;25.10;67.90
57833;DHT22;43667;53.036;6.740;2022-08-21T13:44:02;25.10;67.50
57833;DHT22;43667;53.036;6.740;2022-08-21T13:46:34;25.20;67.90
57833;DHT22;43667;53.036;6.740;2022-08-21T13:49:01;25.20;67.50
57833;DHT22;43667;53.036;6.740;2022-08-21T13:51:29;25.10;64.50
57833;DHT22;43667;53.036;6.740;2022-08-21T13:53:55;25.10;67.20
57833;DHT22;43667;53.036;6.740;2022-08-21T13:56:33;25.10;66.40
57833;DHT22;43667;53.036;6.740;2022-08-21T13:59:06;25.30;66.80
57833;DHT22;43667;53.036;6.740;2022-08-21T14:02:17;25.50;66.30
57833;DHT22;43667;53.036;6.740;2022-08-21T14:04:58;25.80;63.60
57833;DHT22;43667;53.036;6.740;2022-08-21T14:07:31;26.20;61.70
57833;DHT22;43667;53.036;6.740;2022-08-21T14:10:05;26.50;60.10
57833;DHT22;43667;53.036;6.740;2022-08-21T14:12:51;26.70;58.50
57833;DHT22;43667;53.036;6.740;2022-08-21T14:15:23;27.00;58.40
57833;DHT22;43667;53.036;6.740;2022-08-21T14:17:49;27.30;57.00
57833;DHT22;43667;53.036;6.740;2022-08-21T14:20:31;27.30;55.40
57833;DHT22;43667;53.036;6.740;2022-08-21T14:22:57;27.30;56.20
57833;DHT22;43667;53.036;6.740;2022-08-21T14:30:36;27.70;54.50
57833;DHT22;43667;53.036;6.740;2022-08-21T14:33:03;27.70;53.90
57833;DHT22;43667;53.036;6.740;2022-08-21T14:35:30;27.70;53.50
57833;DHT22;43667;53.036;6.740;2022-08-21T14:37:56;27.80;53.90
57833;DHT22;43667;53.036;6.740;2022-08-21T14:40:23;27.80;53.70
57833;DHT22;43667;53.036;6.740;2022-08-21T14:42:50;27.90;53.80
57833;DHT22;43667;53.036;6.740;2022-08-21T14:45:34;28.10;52.60
57833;DHT22;43667;53.036;6.740;2022-08-21T14:48:02;28.20;51.40
57833;DHT22;43667;53.036;6.740;2022-08-21T14:50:28;28.30;52.00
57833;DHT22;43667;53.036;6.740;2022-08-21T14:52:54;28.40;51.40
57833;DHT22;43667;53.036;6.740;2022-08-21T14:55:20;28.70;51.50
57833;DHT22;43667;53.036;6.740;2022-08-21T14:57:48;28.90;50.40
57833;DHT22;43667;53.036;6.740;2022-08-21T15:00:18;28.90;50.80
57833;DHT22;43667;53.036;6.740;2022-08-21T15:02:45;29.00;51.00
57833;DHT22;43667;53.036;6.740;2022-08-21T15:05:11;29.20;50.60
57833;DHT22;43667;53.036;6.740;2022-08-21T15:07:37;29.30;50.00
57833;DHT22;43667;53.036;6.740;2022-08-21T15:10:03;29.40;49.30
57833;DHT22;43667;53.036;6.740;2022-08-21T15:12:29;29.50;49.50
57833;DHT22;43667;53.036;6.740;2022-08-21T15:14:55;29.70;48.60
57833;DHT22;43667;53.036;6.740;2022-08-21T15:17:21;29.90;48.40
57833;DHT22;43667;53.036;6.740;2022-08-21T15:19:47;30.10;47.30
57833;DHT22;43667;53.036;6.740;2022-08-21T15:22:13;30.10;46.80
57833;DHT22;43667;53.036;6.740;2022-08-21T15:24:39;30.00;46.80
57833;DHT22;43667;53.036;6.740;2022-08-21T15:27:07;29.70;46.60
57833;DHT22;43667;53.036;6.740;2022-08-21T15:29:37;29.40;47.40
57833;DHT22;43667;53.036;6.740;2022-08-21T15:32:25;29.10;48.00
57833;DHT22;43667;53.036;6.740;2022-08-21T15:34:53;29.10;49.00
57833;DHT22;43667;53.036;6.740;2022-08-21T15:37:19;28.90;48.10
57833;DHT22;43667;53.036;6.740;2022-08-21T15:39:45;28.70;48.40
57833;DHT22;43667;53.036;6.740;2022-08-21T15:42:11;28.50;48.40
57833;DHT22;43667;53.036;6.740;2022-08-21T15:44:39;28.30;48.90
57833;DHT22;43667;53.036;6.740;2022-08-21T15:47:05;28.20;49.20
57833;DHT22;43667;53.036;6.740;2022-08-21T15:49:31;28.10;49.30
57833;DHT22;43667;53.036;6.740;2022-08-21T15:51:58;27.90;50.40
57833;DHT22;43667;53.036;6.740;2022-08-21T15:54:24;27.70;51.30
57833;DHT22;43667;53.036;6.740;2022-08-21T15:56:50;27.70;52.40
57833;DHT22;43667;53.036;6.740;2022-08-21T15:59:32;27.60;52.60
57833;DHT22;43667;53.036;6.740;2022-08-21T16:02:02;27.40;52.60
57833;DHT22;43667;53.036;6.740;2022-08-21T16:04:28;27.20;53.20
57833;DHT22;43667;53.036;6.740;2022-08-21T16:06:54;27.00;54.10
57833;DHT22;43667;53.036;6.740;2022-08-21T16:09:20;26.90;54.30
57833;DHT22;43667;53.036;6.740;2022-08-21T16:11:46;26.80;54.70
57833;DHT22;43667;53.036;6.740;2022-08-21T16:14:14;26.80;54.30
57833;DHT22;43667;53.036;6.740;2022-08-21T16:16:40;26.70;54.10
57833;DHT22;43667;53.036;6.740;2022-08-21T16:19:05;26.60;54.20
57833;DHT22;43667;53.036;6.740;2022-08-21T16:21:32;26.40;54.60
57833;DHT22;43667;53.036;6.740;2022-08-21T16:23:58;26.20;56.50
57833;DHT22;43667;53.036;6.740;2022-08-21T16:26:24;25.90;58.10
57833;DHT22;43667;53.036;6.740;2022-08-21T16:28:54;25.60;59.50
57833;DHT22;43667;53.036;6.740;2022-08-21T16:31:23;25.40;60.90
57833;DHT22;43667;53.036;6.740;2022-08-21T16:33:52;25.20;62.30
57833;DHT22;43667;53.036;6.740;2022-08-21T16:36:18;25.00;63.80
57833;DHT22;43667;53.036;6.740;2022-08-21T16:38:44;24.80;65.20
57833;DHT22;43667;53.036;6.740;2022-08-21T16:41:16;24.70;66.50
57833;DHT22;43667;53.036;6.740;2022-08-21T16:43:43;24.50;68.10
57833;DHT22;43667;53.036;6.740;2022-08-21T16:46:12;24.40;69.60
57833;DHT22;43667;53.036;6.740;2022-08-21T16:48:39;24.30;71.30
57833;DHT22;43667;53.036;6.740;2022-08-21T16:51:06;24.20;72.60
57833;DHT22;43667;53.036;6.740;2022-08-21T16:53:32;24.00;73.70